Time;durP1;ratioP1;P1;durP2;ratioP2;P2;SDS_P1;SDS_P2;PMS_P1;PMS_P2;Temp;Humidity;BMP_temperature;BMP_pressure;BME280_temperature;BME280_humidity;BME280_pressure;Samples;Min_cycle;Max_cycle;Signal;HPM_P1;HPM_P2
2022/01/11 00:00:59;;;;;;;;;69.00;55.00;;;;;21.52;46.56;102576.77;113018;1242;22234;-73
2022/01/11 00:03:25;;;;;;;;;67.00;54.67;;;;;21.53;46.52;102579.11;112996;1242;18649;-73
2022/01/11 00:05:56;;;;;;;;;67.00;51.67;;;;;21.53;46.47;102576.04;113039;1242;19235;-69
2022/01/11 00:08:30;;;;;;;;;66.33;51.67;;;;;21.52;46.45;102578.05;113000;1242;21714;-69
2022/01/11 00:11:02;;;;;;;;;66.67;52.67;;;;;21.51;46.53;102578.84;112980;1242;18707;-70
2022/01/11 00:13:28;;;;;;;;;68.00;53.33;;;;;21.51;46.57;102576.67;113071;1242;19492;-69
2022/01/11 00:15:54;;;;;;;;;65.33;53.00;;;;;21.52;46.33;102577.02;113009;1242;18464;-70
2022/01/11 00:18:20;;;;;;;;;68.33;52.67;;;;;21.52;46.28;102579.39;113108;1242;18565;-68
2022/01/11 00:20:46;;;;;;;;;70.00;51.67;;;;;21.51;46.31;102584.49;113127;1242;19471;-69
2022/01/11 00:25:57;;;;;;;;;64.33;51.33;;;;;21.51;46.36;102584.55;113098;1242;19611;-68
2022/01/11 00:28:24;;;;;;;;;68.67;53.33;;;;;21.50;46.39;102590.23;113016;1242;19909;-71
2022/01/11 00:30:51;;;;;;;;;65.67;51.00;;;;;21.51;46.31;102599.80;112979;1242;18729;-68
2022/01/11 00:33:20;;;;;;;;;65.00;52.00;;;;;21.51;46.29;102606.75;112985;1242;19404;-69
2022/01/11 00:35:56;;;;;;;;;69.50;52.00;;;;;21.51;46.35;102609.30;112992;1242;19750;-70
2022/01/11 00:38:22;;;;;;;;;70.00;54.33;;;;;21.50;46.04;102614.05;112981;1242;18657;-67
2022/01/11 00:40:48;;;;;;;;;69.33;52.00;;;;;21.50;46.22;102618.06;112979;1242;18511;-69
2022/01/11 00:43:14;;;;;;;;;69.00;53.00;;;;;21.50;46.18;102619.23;113027;1242;20801;-68
2022/01/11 00:45:40;;;;;;;;;70.33;53.67;;;;;21.50;46.31;102618.27;113027;1241;19214;-70
2022/01/11 00:48:05;;;;;;;;;66.00;51.00;;;;;21.50;46.18;102621.72;113124;1242;18670;-69
2022/01/11 00:50:32;;;;;;;;;65.00;53.00;;;;;21.49;46.06;102618.02;113024;1242;19347;-68
2022/01/11 00:52:58;;;;;;;;;67.00;53.33;;;;;21.50;46.25;102617.44;112937;1241;21049;-69
2022/01/11 00:55:24;;;;;;;;;67.67;54.00;;;;;21.49;46.06;102620.94;113005;1242;18501;-71
2022/01/11 00:57:50;;;;;;;;;67.00;52.00;;;;;21.49;46.05;102619.67;112978;1242;20681;-72
2022/01/11 01:00:16;;;;;;;;;67.67;53.00;;;;;21.47;46.01;102612.54;113061;1242;18583;-70
2022/01/11 01:02:42;;;;;;;;;70.33;53.00;;;;;21.48;46.05;102621.71;112985;1242;21863;-72
2022/01/11 01:05:08;;;;;;;;;67.00;51.33;;;;;21.47;45.96;102619.84;113018;1242;19466;-73
2022/01/11 01:07:33;;;;;;;;;67.00;51.33;;;;;21.47;45.94;102622.23;112980;1242;21585;-70
2022/01/11 01:10:03;;;;;;;;;66.67;53.00;;;;;21.47;45.92;102621.85;112978;1242;18980;-71
2022/01/11 01:12:29;;;;;;;;;70.00;53.33;;;;;21.44;45.84;102621.33;113027;1242;20324;-69
2022/01/11 01:14:55;;;;;;;;;67.67;54.00;;;;;21.45;45.83;102626.02;112988;1242;19871;-71
2022/01/11 01:17:21;;;;;;;;;66.33;53.00;;;;;21.45;45.90;102628.55;112873;1241;23235;-71
2022/01/11 01:19:46;;;;;;;;;66.00;52.67;;;;;21.45;45.81;102629.61;112984;1241;19349;-73
2022/01/11 01:22:12;;;;;;;;;72.00;53.67;;;;;21.45;45.88;102632.02;112976;1242;18560;-72
2022/01/11 01:24:38;;;;;;;;;73.00;54.00;;;;;21.45;45.74;102633.27;113027;1242;18716;-70
2022/01/11 01:27:04;;;;;;;;;64.67;52.00;;;;;21.44;45.67;102631.71;112984;1242;23140;-74
2022/01/11 01:29:30;;;;;;;;;66.00;54.00;;;;;21.45;45.71;102636.96;112974;1242;18503;-70
2022/01/11 01:31:56;;;;;;;;;68.33;54.00;;;;;21.45;45.78;102641.70;112973;1241;18686;-69
2022/01/11 01:34:23;;;;;;;;;70.33;55.67;;;;;21.43;45.61;102639.98;112986;1242;21197;-70
2022/01/11 01:36:49;;;;;;;;;68.33;52.33;;;;;21.44;45.51;102644.33;112986;1242;18691;-73
2022/01/11 01:39:15;;;;;;;;;72.67;55.00;;;;;21.44;45.74;102648.13;112986;1242;19075;-72
2022/01/11 01:41:43;;;;;;;;;66.00;52.00;;;;;21.44;45.62;102651.04;113025;1242;19139;-71
2022/01/11 01:44:09;;;;;;;;;68.67;53.67;;;;;21.42;45.72;102650.98;113020;1242;22070;-71
2022/01/11 01:46:34;;;;;;;;;65.33;52.00;;;;;21.43;45.74;102655.66;113072;1242;19347;-70
2022/01/11 01:49:01;;;;;;;;;68.33;52.00;;;;;21.44;45.54;102651.79;113089;1242;19400;-71
2022/01/11 01:51:27;;;;;;;;;65.50;54.00;;;;;21.43;45.48;102649.63;113049;1242;20101;-70
2022/01/11 01:53:53;;;;;;;;;71.67;53.67;;;;;21.42;45.63;102650.09;113069;1240;18571;-70
2022/01/11 01:56:19;;;;;;;;;73.00;53.33;;;;;21.42;45.55;102648.11;113065;1241;19209;-71
2022/01/11 01:58:45;;;;;;;;;68.67;52.67;;;;;21.41;45.48;102648.16;113076;1242;22304;-71
2022/01/11 02:01:13;;;;;;;;;67.67;53.00;;;;;21.41;45.53;102652.01;112957;1242;18649;-71
2022/01/11 02:03:40;;;;;;;;;68.67;55.00;;;;;21.41;45.61;102649.65;112952;1242;22046;-71
2022/01/11 02:06:06;;;;;;;;;69.00;54.00;;;;;21.41;45.57;102651.09;113003;1242;18639;-71
2022/01/11 02:08:32;;;;;;;;;66.00;53.00;;;;;21.41;45.40;102651.86;112999;1242;23331;-70
2022/01/11 02:10:57;;;;;;;;;65.67;53.00;;;;;21.41;45.50;102649.11;112966;1241;19229;-69
2022/01/11 02:13:23;;;;;;;;;66.67;53.00;;;;;21.40;45.22;102649.71;112965;1242;18714;-71
2022/01/11 02:15:50;;;;;;;;;71.00;52.00;;;;;21.40;45.37;102651.61;113008;1242;22195;-70
2022/01/11 02:18:18;;;;;;;;;65.67;52.67;;;;;21.40;45.50;102650.80;113010;1242;20787;-73
2022/01/11 02:20:44;;;;;;;;;71.00;53.33;;;;;21.40;45.35;102645.92;113003;1242;20071;-71
2022/01/11 02:23:10;;;;;;;;;66.00;53.00;;;;;21.40;45.36;102652.63;113085;1242;18914;-71
2022/01/11 02:25:36;;;;;;;;;62.33;48.67;;;;;21.39;45.29;102649.60;113087;1242;19287;-73
2022/01/11 02:28:02;;;;;;;;;67.33;51.67;;;;;21.39;45.17;102656.52;113099;1242;18443;-71
2022/01/11 02:30:32;;;;;;;;;69.33;52.00;;;;;21.39;45.39;102655.80;113013;1242;19037;-71
2022/01/11 02:32:58;;;;;;;;;65.00;53.00;;;;;21.40;45.42;102658.13;113010;1242;20954;-71
2022/01/11 02:35:24;;;;;;;;;67.00;52.00;;;;;21.39;45.35;102663.27;112972;1242;19268;-71
2022/01/11 02:37:50;;;;;;;;;68.00;53.00;;;;;21.39;45.19;102663.09;112982;1242;18519;-70
2022/01/11 02:40:15;;;;;;;;;68.33;52.67;;;;;21.39;45.21;102666.67;113012;1242;19365;-70
2022/01/11 02:42:41;;;;;;;;;68.00;52.33;;;;;21.39;45.17;102665.68;112995;1242;18586;-69
2022/01/11 02:45:07;;;;;;;;;71.67;54.00;;;;;21.38;45.32;102666.42;113010;1242;18988;-70
2022/01/11 02:47:33;;;;;;;;;69.33;54.33;;;;;21.39;45.05;102668.77;113008;1242;21314;-72
2022/01/11 02:49:59;;;;;;;;;63.33;51.33;;;;;21.37;45.11;102665.43;112991;1242;19167;-72
2022/01/11 02:52:25;;;;;;;;;66.67;50.00;;;;;21.38;45.18;102666.63;113055;1242;18551;-69
2022/01/11 02:54:51;;;;;;;;;70.33;52.67;;;;;21.39;45.09;102668.40;113010;1242;22527;-72
2022/01/11 02:57:16;;;;;;;;;66.00;53.00;;;;;21.38;45.28;102671.53;113009;1242;18465;-74
2022/01/11 02:59:42;;;;;;;;;64.33;52.00;;;;;21.36;45.13;102667.20;113006;1241;19348;-73
2022/01/11 03:02:08;;;;;;;;;62.33;50.33;;;;;21.38;45.18;102671.56;112985;1241;19483;-72
2022/01/11 03:04:34;;;;;;;;;69.33;54.00;;;;;21.37;45.21;102671.08;112968;1242;18508;-72
2022/01/11 03:07:00;;;;;;;;;60.33;50.67;;;;;21.37;45.00;102667.98;113003;1241;18561;-72
2022/01/11 03:09:30;;;;;;;;;64.00;52.00;;;;;21.35;45.16;102663.41;113012;1242;22298;-72
2022/01/11 03:11:56;;;;;;;;;66.67;51.67;;;;;21.37;44.95;102666.39;112975;1242;22128;-71
2022/01/11 03:14:22;;;;;;;;;66.33;52.00;;;;;21.37;45.07;102666.93;113005;1242;18699;-71
2022/01/11 03:16:48;;;;;;;;;68.67;52.00;;;;;21.37;45.15;102667.08;113062;1242;19801;-72
2022/01/11 03:19:14;;;;;;;;;66.00;50.00;;;;;21.37;45.12;102666.51;113008;1242;20419;-71
2022/01/11 03:21:40;;;;;;;;;66.00;55.00;;;;;21.37;44.98;102672.73;112983;1242;18474;-71
2022/01/11 03:24:06;;;;;;;;;65.33;51.33;;;;;21.36;45.02;102671.39;113055;1242;19250;-74
2022/01/11 03:26:32;;;;;;;;;67.00;51.33;;;;;21.36;44.95;102677.77;113082;1242;19139;-71
2022/01/11 03:28:57;;;;;;;;;68.67;52.00;;;;;21.35;45.01;102679.29;113065;1242;19801;-72
2022/01/11 03:31:24;;;;;;;;;66.00;52.00;;;;;21.34;45.03;102675.15;113022;1242;19148;-71
2022/01/11 03:33:50;;;;;;;;;63.67;50.00;;;;;21.34;44.75;102677.52;113014;1242;18845;-69
2022/01/11 03:36:15;;;;;;;;;67.00;52.00;;;;;21.34;44.89;102678.45;113023;1242;18676;-69
2022/01/11 03:38:41;;;;;;;;;66.33;52.00;;;;;21.34;44.99;102679.88;113012;1242;19348;-69
2022/01/11 03:41:07;;;;;;;;;65.00;51.67;;;;;21.34;45.01;102681.91;112974;1242;20545;-69
2022/01/11 03:43:33;;;;;;;;;63.33;52.00;;;;;21.33;44.77;102687.23;113033;1242;18560;-70
2022/01/11 03:45:59;;;;;;;;;66.33;50.67;;;;;21.33;44.78;102691.59;113055;1241;19496;-72
2022/01/11 03:48:25;;;;;;;;;66.00;48.67;;;;;21.32;44.78;102691.65;113064;1242;19953;-70
2022/01/11 03:50:53;;;;;;;;;64.67;52.00;;;;;21.29;44.81;102685.74;112996;1242;19219;-69
2022/01/11 03:53:20;;;;;;;;;60.33;49.67;;;;;21.32;44.73;102689.84;112967;1242;19629;-70
2022/01/11 03:56:10;;;;;;;;;65.00;52.00;;;;;21.32;44.67;102692.29;112941;1242;19476;-71
2022/01/11 03:58:36;;;;;;;;;67.00;53.67;;;;;21.32;44.74;102690.79;112982;1242;20249;-70
2022/01/11 04:01:01;;;;;;;;;64.67;50.33;;;;;21.32;44.60;102693.86;112946;1242;19231;-69
2022/01/11 04:03:27;;;;;;;;;64.00;52.00;;;;;21.32;44.64;102697.31;113015;1241;18650;-70
2022/01/11 04:05:54;;;;;;;;;65.00;50.67;;;;;21.32;44.69;102694.27;113145;1242;20545;-70
2022/01/11 04:08:20;;;;;;;;;70.00;52.67;;;;;21.32;44.90;102689.50;113054;1242;19922;-69
2022/01/11 04:10:46;;;;;;;;;65.33;50.00;;;;;21.32;44.83;102692.28;113085;1241;18576;-69
2022/01/11 04:13:12;;;;;;;;;68.67;53.67;;;;;21.31;44.63;102694.15;113110;1242;18616;-70
2022/01/11 04:15:38;;;;;;;;;64.33;52.00;;;;;21.31;44.57;102691.08;113046;1242;21011;-70
2022/01/11 04:18:04;;;;;;;;;66.00;49.33;;;;;21.32;44.58;102695.53;113109;1242;18529;-70
2022/01/11 04:20:30;;;;;;;;;62.00;50.00;;;;;21.31;44.62;102694.30;113013;1242;18891;-69
2022/01/11 04:22:55;;;;;;;;;66.00;52.00;;;;;21.29;44.46;102691.58;113009;1242;19818;-72
2022/01/11 04:25:21;;;;;;;;;65.33;50.67;;;;;21.31;44.43;102695.61;112986;1242;18448;-72
2022/01/11 04:27:47;;;;;;;;;64.67;49.00;;;;;21.32;44.65;102692.11;113095;1242;20829;-70
2022/01/11 04:30:13;;;;;;;;;63.00;51.00;;;;;21.31;44.57;102696.30;113085;1242;19250;-70
2022/01/11 04:32:39;;;;;;;;;64.00;50.00;;;;;21.31;44.65;102696.02;113078;1242;22772;-70
2022/01/11 04:35:05;;;;;;;;;63.33;50.33;;;;;21.31;44.55;102698.16;113084;1242;19057;-69
2022/01/11 04:37:31;;;;;;;;;68.33;51.67;;;;;21.31;44.52;102691.48;113043;1242;19183;-70
2022/01/11 04:39:56;;;;;;;;;63.67;52.00;;;;;21.30;44.39;102694.59;112981;1242;18819;-70
2022/01/11 04:42:22;;;;;;;;;62.50;52.00;;;;;21.31;44.47;102697.11;113114;1242;20656;-68
2022/01/11 04:44:48;;;;;;;;;65.67;52.00;;;;;21.30;44.60;102694.98;113067;1242;19271;-72
2022/01/11 04:47:14;;;;;;;;;65.67;52.33;;;;;21.29;44.66;102693.02;113010;1242;23727;-70
2022/01/11 04:49:40;;;;;;;;;67.00;49.67;;;;;21.29;44.48;102687.96;113050;1242;18559;-70
2022/01/11 04:52:06;;;;;;;;;67.33;52.33;;;;;21.30;44.55;102690.24;113011;1241;20497;-70
2022/01/11 04:54:32;;;;;;;;;62.00;48.33;;;;;21.30;44.46;102690.68;113036;1242;20589;-70
2022/01/11 04:56:57;;;;;;;;;60.00;48.00;;;;;21.29;44.56;102694.13;113078;1242;18563;-70
2022/01/11 04:59:24;;;;;;;;;64.67;48.00;;;;;21.30;44.46;102693.35;113112;1242;19265;-70
2022/01/11 05:01:50;;;;;;;;;62.00;48.50;;;;;21.30;44.33;102692.81;113068;1242;18675;-70
2022/01/11 05:04:16;;;;;;;;;61.33;50.00;;;;;21.26;44.47;102686.41;113031;1242;19276;-70
2022/01/11 05:06:42;;;;;;;;;63.33;49.33;;;;;21.29;44.25;102692.54;112996;1242;19151;-69
2022/01/11 05:09:08;;;;;;;;;60.00;48.33;;;;;21.28;44.49;102691.81;113032;1242;19223;-68
2022/01/11 05:11:34;;;;;;;;;63.00;50.00;;;;;21.28;44.44;102692.41;113040;1242;19393;-70
2022/01/11 05:14:00;;;;;;;;;59.00;47.67;;;;;21.28;44.18;102692.77;112992;1242;19225;-70
2022/01/11 05:16:25;;;;;;;;;61.67;49.00;;;;;21.28;44.40;102694.92;112980;1242;21987;-70
2022/01/11 05:18:51;;;;;;;;;61.33;46.67;;;;;21.28;44.28;102693.29;113005;1242;18689;-71
2022/01/11 05:21:17;;;;;;;;;61.00;50.00;;;;;21.27;44.33;102697.53;113023;1242;19670;-70
2022/01/11 05:23:43;;;;;;;;;63.00;48.67;;;;;21.28;44.34;102697.34;112999;1242;19115;-69
2022/01/11 05:26:09;;;;;;;;;61.33;49.67;;;;;21.27;44.27;102701.55;113069;1242;18501;-72
2022/01/11 05:28:35;;;;;;;;;64.00;48.67;;;;;21.26;44.33;102701.64;113066;1242;22221;-70
2022/01/11 05:31:01;;;;;;;;;64.67;49.00;;;;;21.27;44.37;102705.25;113027;1242;18514;-70
2022/01/11 05:33:27;;;;;;;;;62.67;49.00;;;;;21.27;44.29;102710.45;113067;1242;18507;-70
2022/01/11 05:35:53;;;;;;;;;63.00;49.00;;;;;21.27;44.23;102711.20;113057;1241;19507;-70
2022/01/11 05:38:19;;;;;;;;;69.00;52.00;;;;;21.27;44.37;102712.29;113047;1242;18535;-71
2022/01/11 05:40:45;;;;;;;;;62.67;50.00;;;;;21.27;44.24;102716.27;112972;1242;23533;-72
2022/01/11 05:43:12;;;;;;;;;66.50;48.00;;;;;21.28;44.31;102719.16;113070;1242;20583;-72
2022/01/11 05:45:38;;;;;;;;;63.00;50.00;;;;;21.27;44.05;102718.69;113098;1242;19782;-71
2022/01/11 05:48:04;;;;;;;;;60.00;47.33;;;;;21.27;44.16;102719.92;113062;1242;18430;-71
2022/01/11 05:50:29;;;;;;;;;55.33;46.00;;;;;21.27;44.17;102721.02;113076;1242;22237;-67
2022/01/11 05:52:55;;;;;;;;;62.33;48.33;;;;;21.26;44.28;102718.37;113064;1242;22417;-70
2022/01/11 05:55:21;;;;;;;;;60.00;48.00;;;;;21.24;44.13;102714.96;113006;1242;19274;-70
2022/01/11 05:57:47;;;;;;;;;63.00;48.67;;;;;21.27;44.26;102722.16;113017;1242;21222;-70
2022/01/11 06:00:14;;;;;;;;;57.00;46.33;;;;;21.26;44.34;102719.64;113038;1242;18976;-72
2022/01/11 06:02:41;;;;;;;;;62.00;47.00;;;;;21.26;44.25;102718.02;112983;1242;19511;-69
2022/01/11 06:05:07;;;;;;;;;65.00;50.33;;;;;21.25;44.23;102717.91;112968;1242;21932;-70
2022/01/11 06:07:33;;;;;;;;;59.33;49.33;;;;;21.27;44.20;102723.05;113015;1242;19082;-68
2022/01/11 06:09:59;;;;;;;;;62.33;48.00;;;;;21.26;44.00;102721.47;113008;1242;18621;-70
2022/01/11 06:12:25;;;;;;;;;49.33;42.00;;;;;21.26;44.14;102722.19;113014;1241;22929;-69
2022/01/11 06:14:50;;;;;;;;;64.00;50.00;;;;;21.25;44.32;102723.02;113037;1242;18812;-69
2022/01/11 06:17:16;;;;;;;;;60.00;45.67;;;;;21.25;44.26;102728.71;113065;1242;18499;-69
2022/01/11 06:19:42;;;;;;;;;58.00;46.67;;;;;21.25;44.25;102727.95;113048;1242;19692;-69
2022/01/11 06:22:08;;;;;;;;;59.67;49.67;;;;;21.25;44.35;102737.40;112976;1242;18927;-70
2022/01/11 06:24:34;;;;;;;;;61.67;48.67;;;;;21.25;44.18;102744.12;113032;1242;20179;-69
2022/01/11 06:27:00;;;;;;;;;67.00;49.00;;;;;21.25;44.17;102745.05;113112;1242;19206;-72
2022/01/11 06:29:26;;;;;;;;;59.67;46.33;;;;;21.24;44.16;102740.93;113054;1242;20105;-72
2022/01/11 06:31:52;;;;;;;;;60.50;48.00;;;;;21.24;44.23;102741.65;113042;1242;18921;-70
2022/01/11 06:34:18;;;;;;;;;57.67;45.67;;;;;21.24;44.29;102738.26;113089;1242;19108;-70
2022/01/11 06:36:44;;;;;;;;;56.33;46.00;;;;;21.23;44.06;102740.64;113045;1242;23253;-69
2022/01/11 06:39:10;;;;;;;;;56.00;46.33;;;;;21.23;44.14;102739.77;113093;1242;18555;-69
2022/01/11 06:41:36;;;;;;;;;55.00;45.33;;;;;21.23;44.06;102742.45;113037;1242;19510;-70
2022/01/11 06:44:02;;;;;;;;;57.33;46.00;;;;;21.23;44.17;102743.54;113063;1242;18512;-69
2022/01/11 06:46:28;;;;;;;;;60.67;48.33;;;;;21.25;43.99;102744.73;113000;1242;21602;-70
2022/01/11 06:48:54;;;;;;;;;61.67;50.00;;;;;21.31;43.95;102749.80;112975;1242;19404;-69
2022/01/11 06:51:20;;;;;;;;;67.00;49.00;;;;;21.33;44.60;102752.90;113010;1242;18482;-68
2022/01/11 06:53:46;;;;;;;;;59.67;47.67;;;;;21.36;44.83;102753.73;112994;1242;18661;-70
2022/01/11 06:56:12;;;;;;;;;55.33;44.67;;;;;21.38;44.82;102746.14;113030;1242;19210;-70
2022/01/11 06:58:38;;;;;;;;;58.33;46.33;;;;;21.39;44.84;102753.09;112962;1242;18939;-72
2022/01/11 07:01:04;;;;;;;;;51.33;44.33;;;;;21.40;45.06;102745.21;112946;1242;19456;-70
2022/01/11 07:03:30;;;;;;;;;58.00;44.00;;;;;21.43;45.21;102748.60;112865;1242;19915;-70
2022/01/11 07:05:56;;;;;;;;;53.67;44.33;;;;;21.44;45.27;102753.22;113019;1242;20211;-70
2022/01/11 07:08:21;;;;;;;;;51.00;42.00;;;;;21.48;45.54;102760.01;112972;1242;19489;-68
2022/01/11 07:10:47;;;;;;;;;55.67;44.00;;;;;21.51;45.57;102770.30;112978;1242;21387;-71
2022/01/11 07:13:13;;;;;;;;;54.00;44.00;;;;;21.50;45.78;102773.42;112992;1242;22071;-69
2022/01/11 07:15:39;;;;;;;;;52.00;44.00;;;;;21.50;45.98;102778.69;112946;1242;18553;-68
2022/01/11 07:18:09;;;;;;;;;52.33;42.00;;;;;21.55;46.34;102781.89;112933;1242;21664;-69
2022/01/11 07:20:35;;;;;;;;;60.00;44.33;;;;;21.57;46.25;102783.90;112982;1242;20094;-71
2022/01/11 07:23:01;;;;;;;;;49.00;42.00;;;;;21.58;46.61;102786.21;112944;1242;18694;-69
2022/01/11 07:25:30;;;;;;;;;55.00;44.00;;;;;21.58;46.44;102787.88;112969;1242;19448;-69
2022/01/11 07:27:56;;;;;;;;;54.33;43.67;;;;;21.54;46.29;102792.23;112993;1242;19236;-70
2022/01/11 07:30:22;;;;;;;;;52.00;43.33;;;;;21.51;46.28;102793.89;112961;1242;18887;-69
2022/01/11 07:32:48;;;;;;;;;54.33;44.00;;;;;21.53;45.91;102798.50;112929;1242;19332;-69
2022/01/11 07:35:14;;;;;;;;;51.33;42.67;;;;;21.50;46.51;102795.44;112966;1242;18449;-68
2022/01/11 07:37:39;;;;;;;;;57.33;44.33;;;;;21.47;46.74;102804.99;112873;1242;18662;-69
2022/01/11 07:40:06;;;;;;;;;50.67;42.00;;;;;21.49;46.56;102812.14;112799;1242;19219;-69
2022/01/11 07:42:32;;;;;;;;;49.33;43.00;;;;;21.47;46.17;102804.48;112906;1242;19367;-68
2022/01/11 07:44:58;;;;;;;;;51.67;44.00;;;;;21.46;46.42;102808.71;112931;1241;18519;-69
2022/01/11 07:47:24;;;;;;;;;51.00;44.00;;;;;21.43;46.37;102806.04;112997;1240;19238;-70
2022/01/11 07:49:50;;;;;;;;;45.67;41.33;;;;;21.42;46.36;102800.33;112928;1242;20002;-71
2022/01/11 07:52:15;;;;;;;;;52.67;44.00;;;;;21.45;46.08;102798.11;112853;1242;18680;-71
2022/01/11 07:54:41;;;;;;;;;57.00;43.00;;;;;21.46;46.06;102797.84;112955;1240;21032;-70
2022/01/11 07:57:07;;;;;;;;;50.33;42.67;;;;;21.47;45.93;102800.66;112979;1242;18885;-70
2022/01/11 07:59:33;;;;;;;;;52.67;42.33;;;;;21.49;46.21;102803.17;113090;1242;18649;-72
2022/01/11 08:01:59;;;;;;;;;44.50;41.00;;;;;21.50;46.46;102807.05;113054;1242;19592;-71
2022/01/11 08:04:26;;;;;;;;;48.00;42.00;;;;;21.47;46.78;102806.99;113027;1242;21366;-69
2022/01/11 08:06:52;;;;;;;;;47.50;41.00;;;;;21.48;46.85;102817.27;113033;1242;21804;-70
2022/01/11 08:09:18;;;;;;;;;50.67;42.00;;;;;21.50;47.72;102814.56;113014;1242;19315;-70
2022/01/11 08:11:44;;;;;;;;;62.00;42.00;;;;;21.51;48.16;102808.86;112916;1242;19106;-71
2022/01/11 08:14:10;;;;;;;;;47.00;41.00;;;;;21.57;48.63;102816.68;112935;1242;18791;-71
2022/01/11 08:16:36;;;;;;;;;63.00;46.33;;;;;21.59;48.95;102815.02;112914;1242;19859;-70
2022/01/11 08:19:02;;;;;;;;;98.00;69.33;;;;;21.62;49.23;102822.69;112953;1242;20952;-69
2022/01/11 08:21:28;;;;;;;;;76.00;56.33;;;;;21.60;49.56;102826.64;112972;1242;20242;-71
2022/01/11 08:23:54;;;;;;;;;108.50;83.00;;;;;21.57;49.33;102825.63;112942;1242;19184;-70
2022/01/11 08:26:20;;;;;;;;;134.00;112.33;;;;;21.55;49.57;102832.11;113039;1242;19833;-71
2022/01/11 08:28:45;;;;;;;;;195.67;143.67;;;;;21.55;49.73;102837.23;113007;1242;21339;-70
2022/01/11 08:31:11;;;;;;;;;219.25;166.50;;;;;21.55;49.45;102842.46;112947;1242;19813;-74
2022/01/11 08:33:38;;;;;;;;;198.00;152.25;;;;;21.59;49.10;102848.89;112964;1242;19743;-73
2022/01/11 08:36:04;;;;;;;;;182.00;143.75;;;;;21.62;49.19;102852.14;112951;1242;22275;-72
2022/01/11 08:38:30;;;;;;;;;172.33;134.00;;;;;21.64;48.73;102847.73;112981;1242;19772;-72
2022/01/11 08:40:55;;;;;;;;;161.33;120.67;;;;;21.69;48.49;102849.34;112935;1242;18774;-71
2022/01/11 08:43:21;;;;;;;;;165.00;120.00;;;;;21.67;48.69;102849.71;113054;1242;19317;-71
2022/01/11 08:45:47;;;;;;;;;133.67;107.00;;;;;21.65;48.76;102855.34;113061;1242;20876;-69
2022/01/11 08:48:13;;;;;;;;;131.33;96.00;;;;;21.60;48.81;102850.27;112871;1242;18933;-70
2022/01/11 08:50:39;;;;;;;;;127.00;94.33;;;;;21.61;48.66;102856.41;112915;1242;19749;-73
2022/01/11 08:53:06;;;;;;;;;122.33;95.67;;;;;21.63;48.44;102861.62;112991;1242;19818;-70
2022/01/11 08:55:33;;;;;;;;;110.67;84.67;;;;;21.65;48.49;102862.05;112987;1242;19115;-70
2022/01/11 08:57:59;;;;;;;;;101.33;81.33;;;;;21.64;48.47;102866.14;112991;1242;18725;-71
2022/01/11 09:00:26;;;;;;;;;101.67;79.67;;;;;21.63;48.71;102871.84;112988;1242;19161;-70
2022/01/11 09:02:52;;;;;;;;;106.33;81.00;;;;;21.60;48.74;102865.54;112971;1242;19699;-72
2022/01/11 09:05:18;;;;;;;;;104.33;78.00;;;;;21.66;48.51;102871.58;112981;1242;22528;-73
2022/01/11 09:07:44;;;;;;;;;105.50;80.00;;;;;21.67;48.01;102872.95;112966;1242;22672;-71
2022/01/11 09:10:10;;;;;;;;;101.33;76.67;;;;;21.66;48.17;102878.58;113051;1242;22989;-71
2022/01/11 09:12:36;;;;;;;;;99.67;75.67;;;;;21.65;48.64;102881.93;112970;1242;18621;-73
2022/01/11 09:15:02;;;;;;;;;100.33;77.00;;;;;21.64;48.74;102898.33;112982;1242;23486;-71
2022/01/11 09:17:27;;;;;;;;;105.00;81.33;;;;;21.63;48.59;102898.79;112989;1242;18429;-73
2022/01/11 09:19:53;;;;;;;;;97.00;73.67;;;;;21.59;48.70;102894.93;112987;1242;19215;-72
2022/01/11 09:22:19;;;;;;;;;98.33;71.33;;;;;21.59;48.83;102899.64;112996;1242;20923;-70
2022/01/11 09:24:45;;;;;;;;;95.33;67.67;;;;;21.60;48.63;102904.67;113013;1241;18491;-70
2022/01/11 09:27:11;;;;;;;;;89.67;67.00;;;;;21.61;48.63;102898.38;112976;1242;21212;-70
2022/01/11 09:29:37;;;;;;;;;90.00;66.00;;;;;21.62;48.62;102888.70;112939;1242;19256;-69
2022/01/11 09:32:03;;;;;;;;;88.33;64.00;;;;;21.64;48.35;102889.79;112992;1242;22275;-70
2022/01/11 09:34:29;;;;;;;;;83.33;62.33;;;;;21.65;48.36;102890.63;112997;1242;18716;-71
2022/01/11 09:36:54;;;;;;;;;84.00;61.67;;;;;21.64;47.96;102893.81;113023;1242;19181;-69
2022/01/11 09:39:20;;;;;;;;;89.00;63.67;;;;;21.61;48.42;102889.68;113005;1242;18628;-70
2022/01/11 09:41:46;;;;;;;;;85.00;64.00;;;;;21.60;48.37;102888.33;112963;1241;18641;-71
2022/01/11 09:44:12;;;;;;;;;87.67;63.67;;;;;21.59;48.32;102888.93;112970;1242;22972;-72
2022/01/11 09:46:38;;;;;;;;;84.00;62.00;;;;;21.60;48.28;102892.14;112960;1242;19067;-70
2022/01/11 09:49:04;;;;;;;;;77.50;61.00;;;;;21.57;48.02;102889.79;112961;1242;18549;-70
2022/01/11 09:51:29;;;;;;;;;80.00;60.67;;;;;21.58;47.96;102876.61;112984;1242;22850;-72
2022/01/11 09:53:55;;;;;;;;;77.67;60.67;;;;;21.57;47.70;102881.80;112959;1242;18751;-70
2022/01/11 09:56:21;;;;;;;;;80.67;59.00;;;;;21.56;47.73;102887.14;112979;1242;18478;-71
2022/01/11 09:58:47;;;;;;;;;80.50;60.50;;;;;21.56;47.58;102883.50;112981;1242;19702;-71
2022/01/11 10:01:13;;;;;;;;;81.33;59.00;;;;;21.55;47.59;102883.98;112831;1242;19582;-71
2022/01/11 10:03:39;;;;;;;;;82.67;58.00;;;;;21.55;47.43;102878.48;112817;1242;20108;-70
2022/01/11 10:06:05;;;;;;;;;80.00;58.00;;;;;21.55;47.29;102877.62;112923;1242;19864;-70
2022/01/11 10:08:31;;;;;;;;;74.00;56.33;;;;;21.53;47.43;102883.84;112917;1242;20897;-69
2022/01/11 10:10:57;;;;;;;;;67.67;54.00;;;;;21.51;47.44;102884.54;112911;1242;18727;-69
2022/01/11 10:13:23;;;;;;;;;77.33;58.33;;;;;21.53;47.37;102880.48;112955;1242;19374;-69
2022/01/11 10:15:49;;;;;;;;;69.67;52.67;;;;;21.54;47.27;102876.84;112994;1242;22227;-69
2022/01/11 10:18:14;;;;;;;;;80.67;59.33;;;;;21.54;47.50;102882.27;113030;1242;18595;-69
2022/01/11 10:20:40;;;;;;;;;74.00;54.33;;;;;21.52;47.47;102882.62;113069;1242;22428;-69
2022/01/11 10:23:07;;;;;;;;;73.33;56.33;;;;;21.50;47.32;102878.75;113085;1242;18550;-70
2022/01/11 10:25:33;;;;;;;;;71.33;57.33;;;;;21.48;47.40;102872.05;112970;1242;20194;-70
2022/01/11 10:27:59;;;;;;;;;68.00;50.00;;;;;21.47;47.34;102869.95;112996;1242;21986;-70
2022/01/11 10:30:26;;;;;;;;;72.67;53.67;;;;;21.47;47.16;102873.76;112955;1240;19393;-71
2022/01/11 10:32:52;;;;;;;;;73.00;54.00;;;;;21.46;47.23;102869.86;112978;1242;18675;-70
2022/01/11 10:35:18;;;;;;;;;71.67;51.33;;;;;21.45;47.25;102872.25;112980;1241;20160;-70
2022/01/11 10:37:44;;;;;;;;;73.00;54.00;;;;;21.44;47.28;102864.34;112998;1242;18872;-70
2022/01/11 10:40:10;;;;;;;;;66.67;52.00;;;;;21.41;47.02;102867.88;113051;1242;20985;-70
2022/01/11 10:42:38;;;;;;;;;66.00;50.33;;;;;21.33;47.35;102864.95;113086;1242;19877;-69
2022/01/11 10:45:04;;;;;;;;;61.67;48.33;;;;;21.30;47.28;102865.01;112994;1242;19869;-70
2022/01/11 10:47:30;;;;;;;;;63.33;48.00;;;;;21.30;47.16;102874.08;112966;1241;18620;-72
2022/01/11 10:49:56;;;;;;;;;62.00;48.00;;;;;21.29;47.15;102869.66;112879;1242;20775;-70
2022/01/11 10:52:22;;;;;;;;;62.67;48.00;;;;;21.28;47.14;102873.52;112840;1242;18503;-70
2022/01/11 10:54:47;;;;;;;;;67.00;48.00;;;;;21.29;47.03;102873.65;112954;1242;23156;-70
2022/01/11 10:57:14;;;;;;;;;56.33;43.00;;;;;21.28;47.12;102870.81;113038;1242;19911;-71